sensor_id;sensor_type;location;lat;lon;timestamp;P1;durP1;ratioP1;P2;durP2;ratioP2
46481;SDS011;32193;51.446;6.792;2022-08-03T00:02:23;9.00;;;1.83;;
46481;SDS011;32193;51.446;6.792;2022-08-03T00:04:49;8.70;;;1.92;;
46481;SDS011;32193;51.446;6.792;2022-08-03T00:07:14;8.32;;;2.85;;
46481;SDS011;32193;51.446;6.792;2022-08-03T00:09:40;8.95;;;2.15;;
46481;SDS011;32193;51.446;6.792;2022-08-03T00:12:05;7.53;;;2.30;;
46481;SDS011;32193;51.446;6.792;2022-08-03T00:14:31;5.78;;;2.30;;
46481;SDS011;32193;51.446;6.792;2022-08-03T00:16:57;5.20;;;1.92;;
46481;SDS011;32193;51.446;6.792;2022-08-03T00:19:23;12.70;;;2.40;;
46481;SDS011;32193;51.446;6.792;2022-08-03T00:21:49;7.57;;;2.25;;
46481;SDS011;32193;51.446;6.792;2022-08-03T00:24:14;6.47;;;2.08;;
46481;SDS011;32193;51.446;6.792;2022-08-03T00:26:40;10.40;;;2.17;;
46481;SDS011;32193;51.446;6.792;2022-08-03T00:29:06;8.15;;;1.85;;
46481;SDS011;32193;51.446;6.792;2022-08-03T00:31:31;9.07;;;2.00;;
46481;SDS011;32193;51.446;6.792;2022-08-03T00:33:57;6.97;;;2.08;;
46481;SDS011;32193;51.446;6.792;2022-08-03T00:36:23;7.78;;;1.90;;
46481;SDS011;32193;51.446;6.792;2022-08-03T00:38:48;9.20;;;2.67;;
46481;SDS011;32193;51.446;6.792;2022-08-03T00:41:14;8.05;;;2.05;;
46481;SDS011;32193;51.446;6.792;2022-08-03T00:43:39;9.10;;;2.40;;
46481;SDS011;32193;51.446;6.792;2022-08-03T00:46:05;7.88;;;2.38;;
46481;SDS011;32193;51.446;6.792;2022-08-03T00:48:31;10.57;;;2.90;;
46481;SDS011;32193;51.446;6.792;2022-08-03T00:50:56;7.90;;;2.35;;
46481;SDS011;32193;51.446;6.792;2022-08-03T00:53:22;5.90;;;2.15;;
46481;SDS011;32193;51.446;6.792;2022-08-03T00:55:48;9.82;;;2.63;;
46481;SDS011;32193;51.446;6.792;2022-08-03T00:58:14;6.15;;;1.90;;
46481;SDS011;32193;51.446;6.792;2022-08-03T01:00:40;9.82;;;2.30;;
46481;SDS011;32193;51.446;6.792;2022-08-03T01:03:06;7.65;;;2.50;;
46481;SDS011;32193;51.446;6.792;2022-08-03T01:05:36;9.98;;;2.25;;
46481;SDS011;32193;51.446;6.792;2022-08-03T01:08:36;4.88;;;1.80;;
46481;SDS011;32193;51.446;6.792;2022-08-03T01:19:49;10.55;;;2.67;;
46481;SDS011;32193;51.446;6.792;2022-08-03T01:22:27;6.60;;;2.38;;
46481;SDS011;32193;51.446;6.792;2022-08-03T01:30:47;6.95;;;2.50;;
46481;SDS011;32193;51.446;6.792;2022-08-03T01:33:16;9.35;;;2.67;;
46481;SDS011;32193;51.446;6.792;2022-08-03T01:35:46;8.20;;;2.60;;
46481;SDS011;32193;51.446;6.792;2022-08-03T01:38:21;6.45;;;2.35;;
46481;SDS011;32193;51.446;6.792;2022-08-03T01:40:52;4.43;;;2.10;;
46481;SDS011;32193;51.446;6.792;2022-08-03T01:43:20;6.18;;;2.42;;
46481;SDS011;32193;51.446;6.792;2022-08-03T01:45:52;8.35;;;2.88;;
46481;SDS011;32193;51.446;6.792;2022-08-03T01:48:19;12.82;;;2.72;;
46481;SDS011;32193;51.446;6.792;2022-08-03T01:50:46;9.05;;;2.55;;
46481;SDS011;32193;51.446;6.792;2022-08-03T01:53:14;9.05;;;2.80;;
46481;SDS011;32193;51.446;6.792;2022-08-03T01:55:41;8.15;;;2.25;;
46481;SDS011;32193;51.446;6.792;2022-08-03T01:58:09;7.78;;;2.78;;
46481;SDS011;32193;51.446;6.792;2022-08-03T02:00:39;8.27;;;2.50;;
46481;SDS011;32193;51.446;6.792;2022-08-03T02:03:06;8.77;;;2.97;;
46481;SDS011;32193;51.446;6.792;2022-08-03T02:05:32;6.45;;;2.58;;
46481;SDS011;32193;51.446;6.792;2022-08-03T02:07:59;7.80;;;2.28;;
46481;SDS011;32193;51.446;6.792;2022-08-03T02:10:27;8.00;;;2.53;;
46481;SDS011;32193;51.446;6.792;2022-08-03T02:12:54;6.00;;;2.60;;
46481;SDS011;32193;51.446;6.792;2022-08-03T02:15:23;15.90;;;3.17;;
46481;SDS011;32193;51.446;6.792;2022-08-03T02:17:49;9.18;;;2.78;;
46481;SDS011;32193;51.446;6.792;2022-08-03T02:20:17;7.47;;;2.50;;
46481;SDS011;32193;51.446;6.792;2022-08-03T02:22:43;7.45;;;2.45;;
46481;SDS011;32193;51.446;6.792;2022-08-03T02:25:11;5.82;;;2.30;;
46481;SDS011;32193;51.446;6.792;2022-08-03T02:27:40;6.47;;;2.33;;
46481;SDS011;32193;51.446;6.792;2022-08-03T02:30:10;10.18;;;2.45;;
46481;SDS011;32193;51.446;6.792;2022-08-03T02:32:38;7.13;;;2.30;;
46481;SDS011;32193;51.446;6.792;2022-08-03T02:35:09;7.70;;;2.28;;
46481;SDS011;32193;51.446;6.792;2022-08-03T02:37:40;8.02;;;2.58;;
46481;SDS011;32193;51.446;6.792;2022-08-03T02:40:09;8.10;;;2.53;;
46481;SDS011;32193;51.446;6.792;2022-08-03T02:42:35;8.68;;;2.65;;
46481;SDS011;32193;51.446;6.792;2022-08-03T02:45:04;7.38;;;2.75;;
46481;SDS011;32193;51.446;6.792;2022-08-03T02:47:34;8.60;;;2.80;;
46481;SDS011;32193;51.446;6.792;2022-08-03T02:50:02;6.47;;;2.20;;
46481;SDS011;32193;51.446;6.792;2022-08-03T02:52:28;6.15;;;2.60;;
46481;SDS011;32193;51.446;6.792;2022-08-03T02:54:58;7.20;;;2.70;;
46481;SDS011;32193;51.446;6.792;2022-08-03T02:57:25;9.77;;;2.80;;
46481;SDS011;32193;51.446;6.792;2022-08-03T02:59:54;7.43;;;2.58;;
46481;SDS011;32193;51.446;6.792;2022-08-03T03:02:21;8.00;;;2.55;;
46481;SDS011;32193;51.446;6.792;2022-08-03T03:04:49;11.35;;;3.75;;
46481;SDS011;32193;51.446;6.792;2022-08-03T03:07:16;9.48;;;3.08;;
46481;SDS011;32193;51.446;6.792;2022-08-03T03:09:44;8.38;;;3.67;;
46481;SDS011;32193;51.446;6.792;2022-08-03T03:12:11;6.07;;;2.72;;
46481;SDS011;32193;51.446;6.792;2022-08-03T03:14:37;12.18;;;3.00;;
46481;SDS011;32193;51.446;6.792;2022-08-03T03:17:08;7.45;;;3.35;;
46481;SDS011;32193;51.446;6.792;2022-08-03T03:19:35;13.25;;;3.95;;
46481;SDS011;32193;51.446;6.792;2022-08-03T03:22:03;7.75;;;3.10;;
46481;SDS011;32193;51.446;6.792;2022-08-03T03:24:31;7.60;;;3.10;;
46481;SDS011;32193;51.446;6.792;2022-08-03T03:26:59;9.77;;;3.40;;
46481;SDS011;32193;51.446;6.792;2022-08-03T03:29:25;13.13;;;3.25;;
46481;SDS011;32193;51.446;6.792;2022-08-03T03:31:52;9.27;;;2.88;;
46481;SDS011;32193;51.446;6.792;2022-08-03T03:34:17;8.63;;;2.90;;
46481;SDS011;32193;51.446;6.792;2022-08-03T03:36:43;8.05;;;3.13;;
46481;SDS011;32193;51.446;6.792;2022-08-03T03:39:09;9.57;;;3.22;;
46481;SDS011;32193;51.446;6.792;2022-08-03T03:41:35;8.82;;;3.05;;
46481;SDS011;32193;51.446;6.792;2022-08-03T03:44:01;10.00;;;3.28;;
46481;SDS011;32193;51.446;6.792;2022-08-03T03:46:27;10.63;;;2.88;;
46481;SDS011;32193;51.446;6.792;2022-08-03T03:48:53;10.95;;;3.17;;
46481;SDS011;32193;51.446;6.792;2022-08-03T03:51:19;7.00;;;2.78;;
46481;SDS011;32193;51.446;6.792;2022-08-03T03:53:57;9.85;;;3.70;;
46481;SDS011;32193;51.446;6.792;2022-08-03T03:56:25;14.43;;;3.83;;
46481;SDS011;32193;51.446;6.792;2022-08-03T03:58:51;10.00;;;3.10;;
46481;SDS011;32193;51.446;6.792;2022-08-03T04:01:17;7.85;;;2.97;;
46481;SDS011;32193;51.446;6.792;2022-08-03T04:03:43;7.00;;;3.00;;
46481;SDS011;32193;51.446;6.792;2022-08-03T04:06:09;7.43;;;2.70;;
46481;SDS011;32193;51.446;6.792;2022-08-03T04:08:55;9.68;;;3.13;;
46481;SDS011;32193;51.446;6.792;2022-08-03T04:11:41;8.45;;;2.92;;
46481;SDS011;32193;51.446;6.792;2022-08-03T04:14:22;10.35;;;3.38;;
46481;SDS011;32193;51.446;6.792;2022-08-03T04:16:52;6.10;;;2.80;;
46481;SDS011;32193;51.446;6.792;2022-08-03T04:19:31;11.93;;;3.00;;
46481;SDS011;32193;51.446;6.792;2022-08-03T04:22:02;10.43;;;3.30;;
46481;SDS011;32193;51.446;6.792;2022-08-03T04:24:32;9.48;;;3.03;;
46481;SDS011;32193;51.446;6.792;2022-08-03T04:27:03;6.82;;;3.65;;
46481;SDS011;32193;51.446;6.792;2022-08-03T04:29:31;6.45;;;2.83;;
46481;SDS011;32193;51.446;6.792;2022-08-03T04:31:59;5.72;;;2.78;;
46481;SDS011;32193;51.446;6.792;2022-08-03T04:34:26;8.48;;;3.15;;
46481;SDS011;32193;51.446;6.792;2022-08-03T04:36:52;11.30;;;3.80;;
46481;SDS011;32193;51.446;6.792;2022-08-03T04:39:23;10.38;;;3.60;;
46481;SDS011;32193;51.446;6.792;2022-08-03T04:41:54;9.90;;;2.58;;
46481;SDS011;32193;51.446;6.792;2022-08-03T04:44:23;8.68;;;3.00;;
46481;SDS011;32193;51.446;6.792;2022-08-03T04:46:49;11.82;;;3.85;;
46481;SDS011;32193;51.446;6.792;2022-08-03T04:49:16;10.65;;;3.50;;
46481;SDS011;32193;51.446;6.792;2022-08-03T04:51:43;7.53;;;3.47;;
46481;SDS011;32193;51.446;6.792;2022-08-03T04:54:13;7.97;;;3.03;;
46481;SDS011;32193;51.446;6.792;2022-08-03T04:56:40;13.93;;;3.58;;
46481;SDS011;32193;51.446;6.792;2022-08-03T04:59:06;7.60;;;3.03;;
46481;SDS011;32193;51.446;6.792;2022-08-03T05:01:32;9.07;;;3.53;;
46481;SDS011;32193;51.446;6.792;2022-08-03T05:03:58;10.32;;;2.88;;
46481;SDS011;32193;51.446;6.792;2022-08-03T05:06:24;7.15;;;3.20;;
46481;SDS011;32193;51.446;6.792;2022-08-03T05:08:50;6.90;;;2.85;;
46481;SDS011;32193;51.446;6.792;2022-08-03T05:11:16;9.73;;;3.65;;
46481;SDS011;32193;51.446;6.792;2022-08-03T05:13:42;10.98;;;3.72;;
46481;SDS011;32193;51.446;6.792;2022-08-03T05:16:08;11.10;;;3.35;;
46481;SDS011;32193;51.446;6.792;2022-08-03T05:18:34;9.30;;;3.08;;
46481;SDS011;32193;51.446;6.792;2022-08-03T05:21:00;14.27;;;3.75;;
46481;SDS011;32193;51.446;6.792;2022-08-03T05:23:25;6.38;;;2.90;;
46481;SDS011;32193;51.446;6.792;2022-08-03T05:25:51;6.80;;;3.20;;
46481;SDS011;32193;51.446;6.792;2022-08-03T05:28:17;9.00;;;3.05;;
46481;SDS011;32193;51.446;6.792;2022-08-03T05:30:43;12.68;;;3.30;;
46481;SDS011;32193;51.446;6.792;2022-08-03T05:33:09;11.32;;;2.78;;
46481;SDS011;32193;51.446;6.792;2022-08-03T05:35:35;8.95;;;3.13;;
46481;SDS011;32193;51.446;6.792;2022-08-03T05:38:03;6.25;;;2.78;;
46481;SDS011;32193;51.446;6.792;2022-08-03T05:40:29;8.40;;;3.20;;
46481;SDS011;32193;51.446;6.792;2022-08-03T05:42:54;7.53;;;3.08;;
46481;SDS011;32193;51.446;6.792;2022-08-03T05:45:21;5.85;;;2.72;;
46481;SDS011;32193;51.446;6.792;2022-08-03T05:47:47;7.05;;;2.90;;
46481;SDS011;32193;51.446;6.792;2022-08-03T05:50:14;9.88;;;3.85;;
46481;SDS011;32193;51.446;6.792;2022-08-03T05:52:40;8.35;;;2.92;;
46481;SDS011;32193;51.446;6.792;2022-08-03T05:55:08;8.63;;;3.53;;
46481;SDS011;32193;51.446;6.792;2022-08-03T05:57:34;8.02;;;2.78;;
46481;SDS011;32193;51.446;6.792;2022-08-03T06:00:03;9.18;;;3.30;;
46481;SDS011;32193;51.446;6.792;2022-08-03T06:02:31;7.65;;;3.08;;
46481;SDS011;32193;51.446;6.792;2022-08-03T06:04:56;8.48;;;3.65;;
46481;SDS011;32193;51.446;6.792;2022-08-03T06:07:22;9.50;;;3.22;;
46481;SDS011;32193;51.446;6.792;2022-08-03T06:09:48;9.02;;;3.13;;
46481;SDS011;32193;51.446;6.792;2022-08-03T06:12:14;8.10;;;2.95;;
46481;SDS011;32193;51.446;6.792;2022-08-03T06:14:40;9.43;;;2.95;;
46481;SDS011;32193;51.446;6.792;2022-08-03T06:17:06;8.57;;;3.00;;
46481;SDS011;32193;51.446;6.792;2022-08-03T06:19:32;10.30;;;2.95;;
46481;SDS011;32193;51.446;6.792;2022-08-03T06:21:58;7.38;;;2.90;;
46481;SDS011;32193;51.446;6.792;2022-08-03T06:24:23;6.55;;;3.05;;
46481;SDS011;32193;51.446;6.792;2022-08-03T06:26:49;10.43;;;3.10;;
46481;SDS011;32193;51.446;6.792;2022-08-03T06:29:15;10.90;;;3.40;;
46481;SDS011;32193;51.446;6.792;2022-08-03T06:31:41;9.70;;;3.22;;
46481;SDS011;32193;51.446;6.792;2022-08-03T06:34:06;8.35;;;3.30;;
46481;SDS011;32193;51.446;6.792;2022-08-03T06:36:32;7.88;;;3.10;;
46481;SDS011;32193;51.446;6.792;2022-08-03T06:38:58;10.25;;;4.82;;
46481;SDS011;32193;51.446;6.792;2022-08-03T06:41:24;10.57;;;3.05;;
46481;SDS011;32193;51.446;6.792;2022-08-03T06:43:51;9.38;;;3.50;;
46481;SDS011;32193;51.446;6.792;2022-08-03T06:46:16;8.30;;;3.42;;
46481;SDS011;32193;51.446;6.792;2022-08-03T06:48:42;12.45;;;3.80;;
46481;SDS011;32193;51.446;6.792;2022-08-03T06:51:08;12.68;;;3.30;;
46481;SDS011;32193;51.446;6.792;2022-08-03T06:53:34;8.45;;;4.00;;
46481;SDS011;32193;51.446;6.792;2022-08-03T06:55:59;9.07;;;3.28;;
46481;SDS011;32193;51.446;6.792;2022-08-03T06:58:25;10.27;;;3.40;;
46481;SDS011;32193;51.446;6.792;2022-08-03T07:00:51;13.05;;;3.97;;
46481;SDS011;32193;51.446;6.792;2022-08-03T07:03:17;6.65;;;3.10;;
46481;SDS011;32193;51.446;6.792;2022-08-03T07:05:43;10.75;;;3.95;;
46481;SDS011;32193;51.446;6.792;2022-08-03T07:08:12;12.05;;;4.03;;
46481;SDS011;32193;51.446;6.792;2022-08-03T07:10:38;9.15;;;4.00;;
46481;SDS011;32193;51.446;6.792;2022-08-03T07:13:04;14.50;;;4.78;;
46481;SDS011;32193;51.446;6.792;2022-08-03T07:15:30;14.88;;;6.18;;
46481;SDS011;32193;51.446;6.792;2022-08-03T07:17:56;15.02;;;5.68;;
46481;SDS011;32193;51.446;6.792;2022-08-03T07:20:22;14.70;;;5.10;;
46481;SDS011;32193;51.446;6.792;2022-08-03T07:22:48;13.80;;;4.28;;
46481;SDS011;32193;51.446;6.792;2022-08-03T07:25:14;19.90;;;4.50;;
46481;SDS011;32193;51.446;6.792;2022-08-03T07:27:43;12.98;;;4.35;;
46481;SDS011;32193;51.446;6.792;2022-08-03T07:30:13;8.77;;;3.73;;
46481;SDS011;32193;51.446;6.792;2022-08-03T07:32:40;12.32;;;3.75;;
46481;SDS011;32193;51.446;6.792;2022-08-03T07:35:06;14.07;;;3.83;;
46481;SDS011;32193;51.446;6.792;2022-08-03T07:37:32;14.15;;;3.47;;
46481;SDS011;32193;51.446;6.792;2022-08-03T07:39:59;12.65;;;3.65;;
46481;SDS011;32193;51.446;6.792;2022-08-03T07:42:26;14.68;;;4.35;;
46481;SDS011;32193;51.446;6.792;2022-08-03T07:44:53;12.85;;;3.65;;
46481;SDS011;32193;51.446;6.792;2022-08-03T07:47:19;14.93;;;4.20;;
46481;SDS011;32193;51.446;6.792;2022-08-03T07:49:47;14.35;;;3.78;;
46481;SDS011;32193;51.446;6.792;2022-08-03T07:52:12;9.75;;;3.60;;
46481;SDS011;32193;51.446;6.792;2022-08-03T07:55:02;11.32;;;4.18;;
46481;SDS011;32193;51.446;6.792;2022-08-03T07:57:30;8.93;;;3.58;;
46481;SDS011;32193;51.446;6.792;2022-08-03T07:59:55;10.63;;;3.42;;
46481;SDS011;32193;51.446;6.792;2022-08-03T08:02:21;12.93;;;3.38;;
46481;SDS011;32193;51.446;6.792;2022-08-03T08:04:47;12.57;;;3.40;;
46481;SDS011;32193;51.446;6.792;2022-08-03T08:07:12;12.45;;;3.60;;
46481;SDS011;32193;51.446;6.792;2022-08-03T08:09:38;13.55;;;3.53;;
46481;SDS011;32193;51.446;6.792;2022-08-03T08:12:04;13.65;;;3.90;;
46481;SDS011;32193;51.446;6.792;2022-08-03T08:14:30;10.75;;;2.97;;
46481;SDS011;32193;51.446;6.792;2022-08-03T08:16:55;13.60;;;4.15;;
46481;SDS011;32193;51.446;6.792;2022-08-03T08:19:21;14.20;;;3.95;;
46481;SDS011;32193;51.446;6.792;2022-08-03T08:21:47;11.73;;;3.58;;
46481;SDS011;32193;51.446;6.792;2022-08-03T08:24:13;13.27;;;3.67;;
46481;SDS011;32193;51.446;6.792;2022-08-03T08:26:39;14.93;;;3.95;;
46481;SDS011;32193;51.446;6.792;2022-08-03T08:29:04;13.73;;;4.03;;
46481;SDS011;32193;51.446;6.792;2022-08-03T08:31:30;11.82;;;3.50;;
46481;SDS011;32193;51.446;6.792;2022-08-03T08:33:56;14.50;;;4.10;;
46481;SDS011;32193;51.446;6.792;2022-08-03T08:36:22;19.83;;;4.85;;
46481;SDS011;32193;51.446;6.792;2022-08-03T08:38:48;17.08;;;4.45;;
46481;SDS011;32193;51.446;6.792;2022-08-03T08:41:14;12.02;;;3.67;;
46481;SDS011;32193;51.446;6.792;2022-08-03T08:43:41;12.32;;;4.35;;
46481;SDS011;32193;51.446;6.792;2022-08-03T08:46:10;11.98;;;4.45;;
46481;SDS011;32193;51.446;6.792;2022-08-03T08:48:39;12.93;;;3.75;;
46481;SDS011;32193;51.446;6.792;2022-08-03T08:51:06;13.93;;;3.85;;
46481;SDS011;32193;51.446;6.792;2022-08-03T08:53:34;16.15;;;4.25;;
46481;SDS011;32193;51.446;6.792;2022-08-03T08:56:01;11.02;;;2.83;;
46481;SDS011;32193;51.446;6.792;2022-08-03T08:58:28;8.73;;;2.45;;
46481;SDS011;32193;51.446;6.792;2022-08-03T09:00:58;11.00;;;2.75;;
46481;SDS011;32193;51.446;6.792;2022-08-03T09:03:24;16.63;;;3.78;;
46481;SDS011;32193;51.446;6.792;2022-08-03T09:05:50;15.30;;;3.13;;
46481;SDS011;32193;51.446;6.792;2022-08-03T09:08:16;15.35;;;3.20;;
46481;SDS011;32193;51.446;6.792;2022-08-03T09:10:42;12.15;;;2.63;;
46481;SDS011;32193;51.446;6.792;2022-08-03T09:13:08;12.48;;;2.80;;
46481;SDS011;32193;51.446;6.792;2022-08-03T09:15:34;13.38;;;2.20;;
46481;SDS011;32193;51.446;6.792;2022-08-03T09:18:03;8.30;;;1.88;;
46481;SDS011;32193;51.446;6.792;2022-08-03T09:20:30;9.20;;;2.80;;
46481;SDS011;32193;51.446;6.792;2022-08-03T09:28:15;12.68;;;2.38;;
46481;SDS011;32193;51.446;6.792;2022-08-03T09:30:44;10.65;;;1.98;;
46481;SDS011;32193;51.446;6.792;2022-08-03T09:33:22;10.82;;;2.50;;
46481;SDS011;32193;51.446;6.792;2022-08-03T09:35:48;8.82;;;1.92;;
46481;SDS011;32193;51.446;6.792;2022-08-03T09:38:15;10.05;;;2.05;;
46481;SDS011;32193;51.446;6.792;2022-08-03T09:40:42;12.35;;;2.47;;
46481;SDS011;32193;51.446;6.792;2022-08-03T09:43:09;10.85;;;2.28;;
46481;SDS011;32193;51.446;6.792;2022-08-03T09:45:36;10.30;;;2.08;;
46481;SDS011;32193;51.446;6.792;2022-08-03T09:50:59;9.07;;;2.00;;
46481;SDS011;32193;51.446;6.792;2022-08-03T09:53:27;12.68;;;2.10;;
46481;SDS011;32193;51.446;6.792;2022-08-03T09:58:20;10.82;;;1.90;;
46481;SDS011;32193;51.446;6.792;2022-08-03T10:03:30;6.18;;;1.40;;
46481;SDS011;32193;51.446;6.792;2022-08-03T10:05:58;10.88;;;1.80;;
46481;SDS011;32193;51.446;6.792;2022-08-03T10:08:46;8.77;;;1.45;;
46481;SDS011;32193;51.446;6.792;2022-08-03T10:11:28;6.05;;;1.60;;
46481;SDS011;32193;51.446;6.792;2022-08-03T10:13:55;11.48;;;1.50;;
46481;SDS011;32193;51.446;6.792;2022-08-03T10:16:21;5.60;;;1.23;;
46481;SDS011;32193;51.446;6.792;2022-08-03T10:18:47;6.85;;;1.17;;
46481;SDS011;32193;51.446;6.792;2022-08-03T10:21:14;8.23;;;1.25;;
46481;SDS011;32193;51.446;6.792;2022-08-03T10:23:43;7.97;;;1.40;;
46481;SDS011;32193;51.446;6.792;2022-08-03T10:26:09;6.57;;;1.48;;
46481;SDS011;32193;51.446;6.792;2022-08-03T10:28:39;4.80;;;1.40;;
46481;SDS011;32193;51.446;6.792;2022-08-03T10:31:12;6.80;;;1.00;;
46481;SDS011;32193;51.446;6.792;2022-08-03T10:33:41;6.82;;;1.20;;
46481;SDS011;32193;51.446;6.792;2022-08-03T10:36:08;6.22;;;1.20;;
46481;SDS011;32193;51.446;6.792;2022-08-03T10:38:42;5.88;;;1.08;;
46481;SDS011;32193;51.446;6.792;2022-08-03T10:41:11;8.07;;;1.20;;
46481;SDS011;32193;51.446;6.792;2022-08-03T10:46:26;8.18;;;1.48;;
46481;SDS011;32193;51.446;6.792;2022-08-03T10:48:52;5.10;;;1.30;;
46481;SDS011;32193;51.446;6.792;2022-08-03T10:51:20;6.07;;;1.27;;
46481;SDS011;32193;51.446;6.792;2022-08-03T10:53:47;5.88;;;1.30;;
46481;SDS011;32193;51.446;6.792;2022-08-03T10:59:18;6.60;;;1.13;;
46481;SDS011;32193;51.446;6.792;2022-08-03T11:02:04;9.07;;;1.48;;
46481;SDS011;32193;51.446;6.792;2022-08-03T11:04:33;5.07;;;1.33;;
46481;SDS011;32193;51.446;6.792;2022-08-03T11:09:42;6.82;;;1.33;;
46481;SDS011;32193;51.446;6.792;2022-08-03T11:12:27;5.93;;;1.35;;
46481;SDS011;32193;51.446;6.792;2022-08-03T11:14:55;9.90;;;2.13;;
46481;SDS011;32193;51.446;6.792;2022-08-03T11:17:21;5.90;;;1.30;;
46481;SDS011;32193;51.446;6.792;2022-08-03T11:19:48;6.85;;;1.30;;
46481;SDS011;32193;51.446;6.792;2022-08-03T11:22:15;7.20;;;1.65;;
46481;SDS011;32193;51.446;6.792;2022-08-03T11:29:54;7.68;;;1.10;;
46481;SDS011;32193;51.446;6.792;2022-08-03T11:40:45;6.93;;;1.67;;
46481;SDS011;32193;51.446;6.792;2022-08-03T11:46:19;6.88;;;1.55;;
46481;SDS011;32193;51.446;6.792;2022-08-03T11:48:48;4.95;;;1.17;;
46481;SDS011;32193;51.446;6.792;2022-08-03T11:51:21;7.30;;;1.05;;
46481;SDS011;32193;51.446;6.792;2022-08-03T11:53:50;8.93;;;1.23;;
46481;SDS011;32193;51.446;6.792;2022-08-03T11:56:20;6.68;;;1.45;;
46481;SDS011;32193;51.446;6.792;2022-08-03T11:58:46;5.50;;;1.25;;
46481;SDS011;32193;51.446;6.792;2022-08-03T12:01:13;8.38;;;1.20;;
46481;SDS011;32193;51.446;6.792;2022-08-03T12:03:42;11.82;;;1.38;;
46481;SDS011;32193;51.446;6.792;2022-08-03T12:06:09;7.78;;;1.17;;
46481;SDS011;32193;51.446;6.792;2022-08-03T12:08:35;8.75;;;1.15;;
46481;SDS011;32193;51.446;6.792;2022-08-03T12:11:02;8.50;;;1.40;;
46481;SDS011;32193;51.446;6.792;2022-08-03T12:16:05;6.97;;;1.48;;
46481;SDS011;32193;51.446;6.792;2022-08-03T12:18:31;10.90;;;1.20;;
46481;SDS011;32193;51.446;6.792;2022-08-03T12:21:09;6.68;;;1.27;;
46481;SDS011;32193;51.446;6.792;2022-08-03T12:23:36;5.40;;;1.17;;
46481;SDS011;32193;51.446;6.792;2022-08-03T12:26:03;8.57;;;1.40;;
46481;SDS011;32193;51.446;6.792;2022-08-03T12:28:30;7.65;;;1.30;;
46481;SDS011;32193;51.446;6.792;2022-08-03T12:30:59;6.90;;;1.50;;
46481;SDS011;32193;51.446;6.792;2022-08-03T12:33:26;8.77;;;1.65;;
46481;SDS011;32193;51.446;6.792;2022-08-03T12:36:05;6.45;;;1.10;;
46481;SDS011;32193;51.446;6.792;2022-08-03T12:38:33;7.93;;;1.40;;
46481;SDS011;32193;51.446;6.792;2022-08-03T12:41:05;8.65;;;1.33;;
46481;SDS011;32193;51.446;6.792;2022-08-03T12:43:33;7.68;;;1.42;;
46481;SDS011;32193;51.446;6.792;2022-08-03T12:46:06;8.45;;;1.60;;
46481;SDS011;32193;51.446;6.792;2022-08-03T12:48:35;6.97;;;1.30;;
46481;SDS011;32193;51.446;6.792;2022-08-03T12:51:18;9.30;;;1.50;;
46481;SDS011;32193;51.446;6.792;2022-08-03T12:53:50;9.23;;;1.35;;
46481;SDS011;32193;51.446;6.792;2022-08-03T12:56:17;4.90;;;1.10;;
46481;SDS011;32193;51.446;6.792;2022-08-03T12:58:45;6.22;;;1.15;;
46481;SDS011;32193;51.446;6.792;2022-08-03T13:01:17;5.85;;;1.20;;
46481;SDS011;32193;51.446;6.792;2022-08-03T13:03:44;7.57;;;1.20;;
46481;SDS011;32193;51.446;6.792;2022-08-03T13:06:15;5.97;;;1.00;;
46481;SDS011;32193;51.446;6.792;2022-08-03T13:08:42;8.75;;;1.40;;
46481;SDS011;32193;51.446;6.792;2022-08-03T13:13:51;6.07;;;1.33;;
46481;SDS011;32193;51.446;6.792;2022-08-03T13:16:18;5.72;;;0.95;;
46481;SDS011;32193;51.446;6.792;2022-08-03T13:18:46;8.32;;;1.15;;
46481;SDS011;32193;51.446;6.792;2022-08-03T13:21:16;6.10;;;1.00;;
46481;SDS011;32193;51.446;6.792;2022-08-03T13:23:42;5.72;;;1.30;;
46481;SDS011;32193;51.446;6.792;2022-08-03T13:26:08;4.88;;;1.20;;
46481;SDS011;32193;51.446;6.792;2022-08-03T13:28:34;11.23;;;1.55;;
46481;SDS011;32193;51.446;6.792;2022-08-03T13:31:00;9.90;;;1.40;;
46481;SDS011;32193;51.446;6.792;2022-08-03T13:33:26;5.22;;;1.10;;
46481;SDS011;32193;51.446;6.792;2022-08-03T13:35:52;8.35;;;1.35;;
46481;SDS011;32193;51.446;6.792;2022-08-03T13:38:18;7.82;;;1.30;;
46481;SDS011;32193;51.446;6.792;2022-08-03T13:40:44;6.32;;;1.58;;
46481;SDS011;32193;51.446;6.792;2022-08-03T13:43:10;9.48;;;1.50;;
46481;SDS011;32193;51.446;6.792;2022-08-03T13:45:36;7.03;;;1.42;;
46481;SDS011;32193;51.446;6.792;2022-08-03T13:48:02;7.38;;;1.33;;
46481;SDS011;32193;51.446;6.792;2022-08-03T13:50:28;9.20;;;1.40;;
46481;SDS011;32193;51.446;6.792;2022-08-03T13:52:55;7.93;;;0.95;;
46481;SDS011;32193;51.446;6.792;2022-08-03T13:55:21;4.82;;;1.13;;
46481;SDS011;32193;51.446;6.792;2022-08-03T13:57:47;3.92;;;1.02;;
46481;SDS011;32193;51.446;6.792;2022-08-03T14:00:13;6.53;;;1.00;;
46481;SDS011;32193;51.446;6.792;2022-08-03T14:02:39;10.90;;;1.52;;
46481;SDS011;32193;51.446;6.792;2022-08-03T14:05:06;6.72;;;1.08;;
46481;SDS011;32193;51.446;6.792;2022-08-03T14:07:32;8.75;;;1.20;;
46481;SDS011;32193;51.446;6.792;2022-08-03T14:09:58;7.70;;;1.20;;
46481;SDS011;32193;51.446;6.792;2022-08-03T14:12:25;7.13;;;1.20;;
46481;SDS011;32193;51.446;6.792;2022-08-03T14:14:51;7.97;;;1.00;;
46481;SDS011;32193;51.446;6.792;2022-08-03T14:17:17;4.65;;;1.00;;
46481;SDS011;32193;51.446;6.792;2022-08-03T14:19:42;5.20;;;1.00;;
46481;SDS011;32193;51.446;6.792;2022-08-03T14:22:08;7.53;;;1.08;;
46481;SDS011;32193;51.446;6.792;2022-08-03T14:24:34;7.38;;;1.42;;
46481;SDS011;32193;51.446;6.792;2022-08-03T14:26:59;7.18;;;1.20;;
46481;SDS011;32193;51.446;6.792;2022-08-03T14:29:26;5.10;;;1.10;;
46481;SDS011;32193;51.446;6.792;2022-08-03T14:31:52;7.03;;;1.20;;
46481;SDS011;32193;51.446;6.792;2022-08-03T14:34:18;6.22;;;0.77;;
46481;SDS011;32193;51.446;6.792;2022-08-03T14:36:43;7.50;;;1.05;;
46481;SDS011;32193;51.446;6.792;2022-08-03T14:39:11;8.52;;;0.93;;
46481;SDS011;32193;51.446;6.792;2022-08-03T14:41:37;6.20;;;0.98;;
46481;SDS011;32193;51.446;6.792;2022-08-03T14:44:03;6.68;;;0.82;;
46481;SDS011;32193;51.446;6.792;2022-08-03T14:46:29;4.07;;;0.80;;
46481;SDS011;32193;51.446;6.792;2022-08-03T14:48:56;4.43;;;0.82;;
46481;SDS011;32193;51.446;6.792;2022-08-03T14:51:22;5.25;;;0.70;;
46481;SDS011;32193;51.446;6.792;2022-08-03T14:53:48;7.22;;;1.05;;
46481;SDS011;32193;51.446;6.792;2022-08-03T14:56:14;5.32;;;0.90;;
46481;SDS011;32193;51.446;6.792;2022-08-03T14:58:40;6.57;;;0.90;;
46481;SDS011;32193;51.446;6.792;2022-08-03T15:01:06;4.50;;;0.80;;
46481;SDS011;32193;51.446;6.792;2022-08-03T15:03:31;6.82;;;1.48;;
46481;SDS011;32193;51.446;6.792;2022-08-03T15:05:57;8.77;;;1.35;;
46481;SDS011;32193;51.446;6.792;2022-08-03T15:08:23;4.22;;;0.70;;
46481;SDS011;32193;51.446;6.792;2022-08-03T15:10:50;8.35;;;0.90;;
46481;SDS011;32193;51.446;6.792;2022-08-03T15:13:16;11.13;;;1.77;;
46481;SDS011;32193;51.446;6.792;2022-08-03T15:15:43;7.93;;;1.63;;
46481;SDS011;32193;51.446;6.792;2022-08-03T15:18:09;8.35;;;1.90;;
46481;SDS011;32193;51.446;6.792;2022-08-03T15:20:36;5.55;;;1.52;;
46481;SDS011;32193;51.446;6.792;2022-08-03T15:23:01;7.07;;;1.10;;
46481;SDS011;32193;51.446;6.792;2022-08-03T15:25:27;5.50;;;1.17;;
46481;SDS011;32193;51.446;6.792;2022-08-03T15:27:53;5.85;;;1.77;;
46481;SDS011;32193;51.446;6.792;2022-08-03T15:30:19;5.30;;;1.40;;
46481;SDS011;32193;51.446;6.792;2022-08-03T15:32:44;5.35;;;1.35;;
46481;SDS011;32193;51.446;6.792;2022-08-03T15:35:10;6.25;;;0.93;;
46481;SDS011;32193;51.446;6.792;2022-08-03T15:37:36;4.30;;;1.20;;
46481;SDS011;32193;51.446;6.792;2022-08-03T15:40:02;5.38;;;1.40;;
46481;SDS011;32193;51.446;6.792;2022-08-03T15:42:29;4.53;;;1.00;;
46481;SDS011;32193;51.446;6.792;2022-08-03T15:44:56;6.88;;;1.15;;